createdAt,value
2022-10-01T00:02:08.582Z,99812.53
2022-10-01T00:04:37.864Z,99817.91
2022-10-01T00:07:09.777Z,99811.41
2022-10-01T00:09:38.731Z,99799.81
2022-10-01T00:12:07.625Z,99817.44
2022-10-01T00:14:38.613Z,99836.06
2022-10-01T00:17:07.181Z,99856.44
2022-10-01T00:19:35.333Z,99823.78
2022-10-01T00:22:03.701Z,99787.91
2022-10-01T00:24:32.182Z,99797.66
2022-10-01T00:27:00.592Z,99810.09
2022-10-01T00:29:31.943Z,99807.81
2022-10-01T00:32:00.581Z,99816.13
2022-10-01T00:34:29.015Z,99804.88
2022-10-01T00:36:57.466Z,99810.09
2022-10-01T00:39:26.196Z,99808.97
2022-10-01T00:41:54.696Z,99809.59
2022-10-01T00:44:35.280Z,99789.53
2022-10-01T00:47:12.190Z,99781.72
2022-10-01T00:49:41.820Z,99795.25
2022-10-01T00:52:14.740Z,99822.22
2022-10-01T00:54:57.851Z,99811.91
2022-10-01T00:57:27.242Z,99790.34
2022-10-01T00:59:58.617Z,99754.59
2022-10-01T01:02:27.209Z,99751.34
2022-10-01T01:04:55.465Z,99764.72
2022-10-01T01:07:23.721Z,99790.34
2022-10-01T01:09:54.203Z,99791.81
2022-10-01T01:12:25.545Z,99788.88
2022-10-01T01:15:27.152Z,99781.56
2022-10-01T01:18:10.988Z,99823.34
2022-10-01T01:20:57.577Z,99864.47
2022-10-01T01:24:01.350Z,99865.31
2022-10-01T01:26:32.618Z,99779.91
2022-10-01T01:29:21.907Z,99747.09
2022-10-01T01:31:50.729Z,99765.37
2022-10-01T01:34:30.419Z,99765.37
2022-10-01T01:37:12.240Z,99764.72
2022-10-01T01:39:49.136Z,99770.28
2022-10-01T01:42:32.021Z,99772.09
2022-10-01T01:45:02.067Z,99772.72
2022-10-01T01:47:33.399Z,99771.91
2022-10-01T01:50:03.203Z,99785.63
2022-10-01T01:52:33.193Z,99789.06
2022-10-01T01:55:07.525Z,99786.94
2022-10-01T01:57:44.351Z,99775.34
2022-10-01T02:00:14.432Z,99790.22
2022-10-01T02:02:50.192Z,99793.00
2022-10-01T02:05:25.901Z,99785.31
2022-10-01T02:08:12.804Z,99805.22
2022-10-01T02:11:13.022Z,99784.19
2022-10-01T02:14:03.449Z,99789.41
2022-10-01T02:17:13.460Z,99780.25
2022-10-01T02:19:57.157Z,99787.09
2022-10-01T02:22:30.280Z,99782.38
2022-10-01T02:25:01.935Z,99773.56
2022-10-01T02:27:35.011Z,99782.69
2022-10-01T02:30:07.972Z,99792.81
2022-10-01T02:32:39.204Z,99783.50
2022-10-01T02:35:11.157Z,99788.91
2022-10-01T02:37:42.828Z,99790.22
2022-10-01T02:40:16.826Z,99783.84
2022-10-01T02:42:55.470Z,99784.66
2022-10-01T02:45:26.351Z,99784.34
2022-10-01T02:48:01.079Z,99788.25
2022-10-01T02:50:37.205Z,99781.38
2022-10-01T02:53:09.847Z,99779.41
2022-10-01T02:55:40.313Z,99781.72
2022-10-01T02:58:08.485Z,99783.16
2022-10-01T03:00:37.241Z,99784.97
2022-10-01T03:03:05.811Z,99789.22
2022-10-01T03:05:33.932Z,99781.41
2022-10-01T03:08:02.352Z,99781.41
2022-10-01T03:10:31.039Z,99771.59
2022-10-01T03:13:01.726Z,99768.66
2022-10-01T03:15:29.980Z,99771.09
2022-10-01T03:17:59.060Z,99761.28
2022-10-01T03:20:27.045Z,99773.56
2022-10-01T03:22:55.431Z,99775.66
2022-10-01T03:25:24.095Z,99782.03
2022-10-01T03:27:53.566Z,99773.88
2022-10-01T03:30:22.325Z,99782.69
2022-10-01T03:32:50.963Z,99785.94
2022-10-01T03:35:19.004Z,99788.56
2022-10-01T03:37:48.033Z,99791.00
2022-10-01T03:40:16.617Z,99801.31
2022-10-01T03:42:44.666Z,99795.75
2022-10-01T03:45:13.259Z,99806.84
2022-10-01T03:47:42.014Z,99817.47
2022-10-01T03:50:10.845Z,99828.88
2022-10-01T03:52:39.437Z,99834.94
2022-10-01T03:55:08.263Z,99822.22
2022-10-01T03:57:36.434Z,99825.13
2022-10-01T04:00:07.834Z,99822.34
2022-10-01T04:02:39.687Z,99814.06
2022-10-01T04:05:08.600Z,99810.47
2022-10-01T04:07:36.685Z,99798.84
2022-10-01T04:10:05.076Z,99802.13
2022-10-01T04:12:33.932Z,99800.81
2022-10-01T04:15:01.902Z,99801.31
2022-10-01T04:17:30.704Z,99800.31
2022-10-01T04:20:00.292Z,99796.91
2022-10-01T04:22:28.796Z,99786.78
2022-10-01T04:24:56.881Z,99788.25
2022-10-01T04:27:25.968Z,99790.88
2022-10-01T04:29:53.998Z,99792.31
2022-10-01T04:32:22.585Z,99791.00
2022-10-01T04:34:53.713Z,99782.19
2022-10-01T04:37:22.859Z,99782.84
2022-10-01T04:39:51.308Z,99779.75
2022-10-01T04:42:20.673Z,99789.56
2022-10-01T04:44:48.715Z,99793.16
2022-10-01T04:47:17.347Z,99792.47
2022-10-01T04:49:46.068Z,99782.34
2022-10-01T04:52:14.096Z,99782.53
2022-10-01T04:54:42.559Z,99788.72
2022-10-01T04:57:10.627Z,99784.47
2022-10-01T04:59:38.870Z,99786.59
2022-10-01T05:02:07.279Z,99791.50
2022-10-01T05:04:35.350Z,99795.75
2022-10-01T05:07:03.440Z,99795.09
2022-10-01T05:09:31.890Z,99795.75
2022-10-01T05:12:00.019Z,99792.31
2022-10-01T05:14:28.002Z,99801.16
2022-10-01T05:16:56.345Z,99793.16
2022-10-01T05:19:27.980Z,99802.63
2022-10-01T05:21:56.544Z,99805.88
2022-10-01T05:24:24.728Z,99809.16
2022-10-01T05:26:54.304Z,99793.94
2022-10-01T05:29:23.108Z,99799.19
2022-10-01T05:31:51.365Z,99807.19
2022-10-01T05:34:19.662Z,99816.16
2022-10-01T05:36:48.047Z,99813.72
2022-10-01T05:39:16.156Z,99819.59
2022-10-01T05:41:44.321Z,99836.59
2022-10-01T05:44:12.915Z,99828.59
2022-10-01T05:46:41.969Z,99820.91
2022-10-01T05:49:10.796Z,99824.19
2022-10-01T05:51:39.308Z,99810.13
2022-10-01T05:54:08.346Z,99811.44
2022-10-01T05:56:36.959Z,99816.19
2022-10-01T05:59:05.629Z,99818.16
2022-10-01T06:01:34.062Z,99814.22
2022-10-01T06:04:02.845Z,99817.31
2022-10-01T06:06:30.961Z,99814.38
2022-10-01T06:08:59.785Z,99824.03
2022-10-01T06:11:28.339Z,99820.44
2022-10-01T06:13:56.560Z,99807.19
2022-10-01T06:16:24.768Z,99801.31
2022-10-01T06:18:57.485Z,99777.12
2022-10-01T06:21:26.252Z,99780.37
2022-10-01T06:23:54.652Z,99784.47
2022-10-01T06:26:22.754Z,99770.09
2022-10-01T06:28:51.812Z,99767.47
2022-10-01T06:31:21.328Z,99760.62
2022-10-01T06:33:49.766Z,99755.53
2022-10-01T06:36:18.029Z,99758.66
2022-10-01T06:38:49.718Z,99749.19
2022-10-01T06:41:18.608Z,99764.56
2022-10-01T06:43:49.993Z,99766.66
2022-10-01T06:46:18.266Z,99766.34
2022-10-01T06:48:47.019Z,99767.97
2022-10-01T06:51:15.014Z,99761.78
2022-10-01T06:53:43.341Z,99759.78
2022-10-01T06:56:11.619Z,99777.94
2022-10-01T06:58:39.712Z,99780.72
2022-10-01T07:01:07.782Z,99776.44
2022-10-01T07:03:36.424Z,99777.44
2022-10-01T07:06:05.695Z,99782.97
2022-10-01T07:08:33.785Z,99782.50
2022-10-01T07:11:03.648Z,99794.09
2022-10-01T07:13:31.833Z,99789.03
2022-10-01T07:16:00.071Z,99796.53
2022-10-01T07:18:28.621Z,99793.41
2022-10-01T07:20:57.562Z,99790.50
2022-10-01T07:23:25.655Z,99786.22
2022-10-01T07:25:54.362Z,99774.44
2022-10-01T07:28:25.766Z,99778.38
2022-10-01T07:31:05.034Z,99771.16
2022-10-01T07:33:33.462Z,99766.94
2022-10-01T07:36:05.080Z,99771.31
2022-10-01T07:38:33.931Z,99761.03
2022-10-01T07:41:03.418Z,99752.66
2022-10-01T07:43:33.148Z,99750.00
2022-10-01T07:46:04.978Z,99742.00
2022-10-01T07:48:33.495Z,99740.03
2022-10-01T07:51:01.933Z,99751.28
2022-10-01T07:53:30.100Z,99762.94
2022-10-01T07:56:01.977Z,99755.09
2022-10-01T07:58:30.627Z,99750.84
2022-10-01T08:01:03.554Z,99762.25
2022-10-01T08:03:32.329Z,99757.00
2022-10-01T08:06:03.060Z,99756.38
2022-10-01T08:08:31.881Z,99755.38
2022-10-01T08:11:02.566Z,99765.19
2022-10-01T08:13:30.605Z,99768.12
2022-10-01T08:15:59.268Z,99755.69
2022-10-01T08:18:28.543Z,99761.22
2022-10-01T08:20:56.588Z,99761.06
2022-10-01T08:23:25.183Z,99750.28
2022-10-01T08:25:53.264Z,99750.59
2022-10-01T08:28:21.285Z,99752.41
2022-10-01T08:30:49.700Z,99753.03
2022-10-01T08:33:18.107Z,99764.16
2022-10-01T08:35:46.492Z,99757.59
2022-10-01T08:38:15.207Z,99765.09
2022-10-01T08:40:47.605Z,99760.22
2022-10-01T08:43:29.404Z,99756.94
2022-10-01T08:46:04.331Z,99753.34
2022-10-01T08:48:56.864Z,99738.62
2022-10-01T08:51:29.006Z,99719.75
2022-10-01T08:54:23.984Z,99708.47
2022-10-01T08:56:55.454Z,99717.44
2022-10-01T08:59:35.825Z,99716.63
2022-10-01T09:02:29.111Z,99724.09
2022-10-01T09:05:01.845Z,99717.16
2022-10-01T09:07:39.613Z,99710.22
2022-10-01T09:10:45.778Z,99721.84
2022-10-01T09:13:34.771Z,99738.91
2022-10-01T09:16:19.117Z,99735.06
2022-10-01T09:19:02.571Z,99727.63
2022-10-01T09:21:46.915Z,99720.38
2022-10-01T09:24:22.752Z,99727.88
2022-10-01T09:26:51.910Z,99718.69
2022-10-01T09:29:40.194Z,99712.47
2022-10-01T09:32:16.924Z,99706.22
2022-10-01T09:34:45.483Z,99692.12
2022-10-01T09:37:25.521Z,99696.44
2022-10-01T09:40:15.877Z,99700.97
2022-10-01T09:42:44.261Z,99699.19
2022-10-01T09:45:14.532Z,99701.44
2022-10-01T09:47:48.492Z,99689.63
2022-10-01T09:50:25.271Z,99685.19
2022-10-01T09:52:54.996Z,99685.22
2022-10-01T09:55:39.205Z,99683.69
2022-10-01T09:58:18.931Z,99691.84
2022-10-01T10:00:51.631Z,99691.47
2022-10-01T10:03:31.130Z,99681.97
2022-10-01T10:06:01.185Z,99687.81
2022-10-01T10:08:35.969Z,99690.69
2022-10-01T10:11:10.485Z,99691.91
2022-10-01T10:13:49.272Z,99682.63
2022-10-01T10:16:20.362Z,99680.75
2022-10-01T10:18:52.575Z,99667.94
2022-10-01T10:21:24.721Z,99667.31
2022-10-01T10:24:02.296Z,99660.78
2022-10-01T10:26:34.594Z,99652.09
2022-10-01T10:29:05.675Z,99644.84
2022-10-01T10:31:42.104Z,99641.88
2022-10-01T10:34:21.722Z,99638.13
2022-10-01T10:36:58.000Z,99638.22
2022-10-01T10:39:30.378Z,99630.72
2022-10-01T10:42:00.222Z,99639.84
2022-10-01T10:44:35.240Z,99634.84
2022-10-01T10:47:07.193Z,99622.38
2022-10-01T10:49:43.527Z,99623.75
2022-10-01T10:52:21.449Z,99618.44
2022-10-01T10:54:59.705Z,99613.56
2022-10-01T10:57:31.225Z,99615.50
2022-10-01T11:00:00.930Z,99615.25
2022-10-01T11:02:33.304Z,99616.69
2022-10-01T11:05:19.369Z,99601.28
2022-10-01T11:07:51.118Z,99591.47
2022-10-01T11:10:40.838Z,99588.25
2022-10-01T11:13:34.217Z,99580.00
2022-10-01T11:16:17.956Z,99570.41
2022-10-01T11:18:58.536Z,99570.09
2022-10-01T11:21:33.570Z,99567.78
2022-10-01T11:24:19.406Z,99560.25
2022-10-01T11:27:24.475Z,99558.22
2022-10-01T11:30:08.587Z,99555.41
2022-10-01T11:32:43.228Z,99559.06
2022-10-01T11:35:30.895Z,99551.13
2022-10-01T11:38:20.028Z,99550.75
2022-10-01T11:41:14.678Z,99549.47
2022-10-01T11:43:47.205Z,99541.19
2022-10-01T11:46:33.015Z,99539.22
2022-10-01T11:49:30.997Z,99529.97
2022-10-01T11:52:34.093Z,99517.31
2022-10-01T11:55:46.721Z,99523.47
2022-10-01T11:58:52.776Z,99520.44
2022-10-01T12:01:24.480Z,99515.16
2022-10-01T12:03:52.949Z,99504.41
2022-10-01T12:06:33.007Z,99514.53
2022-10-01T12:09:19.573Z,99511.91
2022-10-01T12:12:06.927Z,99513.53
2022-10-01T12:14:52.632Z,99511.53
2022-10-01T12:17:26.675Z,99504.81
2022-10-01T12:19:59.950Z,99497.53
2022-10-01T12:22:32.755Z,99496.91
2022-10-01T12:25:01.315Z,99500.19
2022-10-01T12:27:38.148Z,99498.13
2022-10-01T12:30:20.663Z,99495.69
2022-10-01T12:32:58.176Z,99496.91
2022-10-01T12:35:47.686Z,99490.84
2022-10-01T12:38:25.494Z,99480.72
2022-10-01T12:41:19.646Z,99474.25
2022-10-01T12:44:15.126Z,99473.03
2022-10-01T12:46:56.194Z,99466.72
2022-10-01T12:49:42.958Z,99467.34
2022-10-01T12:52:33.706Z,99468.78
2022-10-01T12:55:46.315Z,99478.31
2022-10-01T12:58:44.159Z,99478.31
2022-10-01T13:01:48.154Z,99490.63
2022-10-01T13:04:38.753Z,99491.44
2022-10-01T13:07:30.251Z,99492.81
2022-10-01T13:10:18.853Z,99486.69
2022-10-01T13:12:59.074Z,99479.19
2022-10-01T13:15:34.929Z,99462.03
2022-10-01T13:18:05.719Z,99460.44
2022-10-01T13:20:41.316Z,99451.94
2022-10-01T13:23:28.758Z,99440.78
2022-10-01T13:26:26.406Z,99438.38
2022-10-01T13:29:00.493Z,99434.06
2022-10-01T13:31:39.203Z,99432.03
2022-10-01T13:34:26.350Z,99427.78
2022-10-01T13:36:54.778Z,99436.72
2022-10-01T13:39:36.573Z,99429.81
2022-10-01T13:42:31.006Z,99417.69
2022-10-01T13:45:05.649Z,99411.59
2022-10-01T13:47:42.593Z,99409.19
2022-10-01T13:50:24.699Z,99421.31
2022-10-01T13:53:25.469Z,99417.06
2022-10-01T13:55:54.835Z,99419.34
2022-10-01T13:58:34.119Z,99412.66
2022-10-01T14:01:10.169Z,99404.19
2022-10-01T14:04:20.026Z,99401.53
2022-10-01T14:06:58.898Z,99390.00
2022-10-01T14:09:29.586Z,99395.44
2022-10-01T14:12:26.677Z,99395.03
2022-10-01T14:15:16.453Z,99397.25
2022-10-01T14:17:46.524Z,99394.00
2022-10-01T14:20:30.542Z,99396.84
2022-10-01T14:23:12.117Z,99392.41
2022-10-01T14:25:43.366Z,99393.84
2022-10-01T14:28:33.623Z,99395.69
2022-10-01T14:31:15.137Z,99387.56
2022-10-01T14:33:46.141Z,99388.59
2022-10-01T14:36:19.241Z,99391.81
2022-10-01T14:38:47.340Z,99377.66
2022-10-01T14:41:20.891Z,99382.88
2022-10-01T14:43:49.195Z,99401.91
2022-10-01T14:46:18.717Z,99392.38
2022-10-01T14:48:58.484Z,99398.81
2022-10-01T14:51:30.111Z,99397.00
2022-10-01T14:54:00.432Z,99390.09
2022-10-01T14:56:29.564Z,99390.91
2022-10-01T14:59:03.262Z,99396.16
2022-10-01T15:01:31.763Z,99390.09
2022-10-01T15:03:59.875Z,99387.84
2022-10-01T15:06:30.103Z,99397.31
2022-10-01T15:09:15.084Z,99404.59
2022-10-01T15:11:44.971Z,99396.88
2022-10-01T15:14:24.115Z,99403.72
2022-10-01T15:16:52.691Z,99405.31
2022-10-01T15:19:23.130Z,99405.13
2022-10-01T15:21:57.637Z,99401.00
2022-10-01T15:24:30.471Z,99408.06
2022-10-01T15:26:58.977Z,99408.63
2022-10-01T15:29:28.004Z,99408.44
2022-10-01T15:31:57.793Z,99409.75
2022-10-01T15:34:27.742Z,99396.72
2022-10-01T15:36:56.796Z,99396.72
2022-10-01T15:39:30.037Z,99401.13
2022-10-01T15:42:01.697Z,99399.09
2022-10-01T15:44:42.791Z,99401.25
2022-10-01T15:47:31.457Z,99402.66
2022-10-01T15:50:08.912Z,99403.25
2022-10-01T15:52:55.593Z,99412.09
2022-10-01T15:55:26.418Z,99417.50
2022-10-01T15:58:07.451Z,99414.47
2022-10-01T16:00:58.384Z,99407.72
2022-10-01T16:03:32.707Z,99413.94
2022-10-01T16:06:06.478Z,99403.78
2022-10-01T16:08:48.936Z,99399.37
2022-10-01T16:11:31.823Z,99407.13
2022-10-01T16:14:23.872Z,99411.91
2022-10-01T16:17:17.598Z,99405.63
2022-10-01T16:19:47.327Z,99412.81
2022-10-01T16:22:22.550Z,99413.97
2022-10-01T16:24:53.108Z,99408.19
2022-10-01T16:27:35.631Z,99410.38
2022-10-01T16:30:07.539Z,99409.56
2022-10-01T16:32:35.924Z,99406.87
2022-10-01T16:35:26.903Z,99395.34
2022-10-01T16:37:56.876Z,99396.06
2022-10-01T16:40:29.030Z,99409.53
2022-10-01T16:42:58.897Z,99413.72
2022-10-01T16:45:34.317Z,99418.69
2022-10-01T16:48:02.719Z,99422.09
2022-10-01T16:50:31.482Z,99409.75
2022-10-01T16:53:01.449Z,99403.44
2022-10-01T16:55:36.584Z,99411.63
2022-10-01T16:58:06.465Z,99412.66
2022-10-01T17:00:37.376Z,99418.41
2022-10-01T17:03:09.119Z,99418.69
2022-10-01T17:05:37.742Z,99419.34
2022-10-01T17:08:11.423Z,99422.94
2022-10-01T17:10:44.165Z,99425.75
2022-10-01T17:13:14.027Z,99432.88
2022-10-01T17:15:42.807Z,99428.09
2022-10-01T17:18:14.023Z,99426.28
2022-10-01T17:20:42.427Z,99422.41
2022-10-01T17:23:13.623Z,99414.19
2022-10-01T17:25:42.456Z,99418.44
2022-10-01T17:28:14.158Z,99420.13
2022-10-01T17:30:48.179Z,99413.28
2022-10-01T17:33:22.447Z,99419.50
2022-10-01T17:35:54.548Z,99413.28
2022-10-01T17:38:23.361Z,99422.00
2022-10-01T17:40:56.312Z,99431.75
2022-10-01T17:43:25.586Z,99433.53
2022-10-01T17:46:01.155Z,99438.53
2022-10-01T17:48:30.368Z,99440.00
2022-10-01T17:51:00.453Z,99432.16
2022-10-01T17:53:34.914Z,99442.00
2022-10-01T17:56:14.376Z,99442.66
2022-10-01T17:58:45.269Z,99437.56
2022-10-01T18:01:22.809Z,99433.78
2022-10-01T18:04:00.296Z,99432.50
2022-10-01T18:06:29.673Z,99431.03
2022-10-01T18:08:58.265Z,99428.44
2022-10-01T18:11:28.995Z,99444.13
2022-10-01T18:13:58.065Z,99449.72
2022-10-01T18:16:27.366Z,99452.31
2022-10-01T18:21:49.061Z,99449.09
2022-10-01T18:24:17.359Z,99452.03
2022-10-01T18:26:48.220Z,99455.66
2022-10-01T18:29:20.005Z,99450.69
2022-10-01T18:31:52.511Z,99441.31
2022-10-01T18:34:28.820Z,99449.41
2022-10-01T18:37:04.682Z,99460.41
2022-10-01T18:39:43.631Z,99455.81
2022-10-01T18:42:57.842Z,99452.56
2022-10-01T18:45:38.406Z,99463.56
2022-10-01T18:48:26.554Z,99480.53
2022-10-01T18:51:16.999Z,99473.78
2022-10-01T18:54:03.620Z,99476.72
2022-10-01T18:56:36.020Z,99461.16
2022-10-01T18:59:22.673Z,99484.53
2022-10-01T19:02:05.579Z,99486.16
2022-10-01T19:04:52.323Z,99488.78
2022-10-01T19:07:30.086Z,99475.34
2022-10-01T19:10:12.885Z,99487.09
2022-10-01T19:13:06.435Z,99477.66
2022-10-01T19:15:56.060Z,99475.84
2022-10-01T19:18:46.946Z,99479.09
2022-10-01T19:21:18.144Z,99470.59
2022-10-01T19:23:55.743Z,99475.19
2022-10-01T19:26:36.159Z,99489.25
2022-10-01T19:29:08.785Z,99477.16
2022-10-01T19:31:57.449Z,99475.19
2022-10-01T19:34:44.673Z,99487.31
2022-10-01T19:37:26.208Z,99494.19
2022-10-01T19:39:58.617Z,99494.97
2022-10-01T19:42:33.175Z,99493.56
2022-10-01T19:45:07.495Z,99500.06
2022-10-01T19:47:46.935Z,99504.03
2022-10-01T19:50:30.595Z,99498.63
2022-10-01T19:53:02.457Z,99502.50
2022-10-01T19:55:38.799Z,99500.50
2022-10-01T19:58:21.241Z,99514.09
2022-10-01T20:00:57.262Z,99516.72
2022-10-01T20:03:40.203Z,99514.66
2022-10-01T20:06:47.772Z,99520.19
2022-10-01T20:09:44.328Z,99518.03
2022-10-01T20:12:36.234Z,99509.47
2022-10-01T20:15:40.979Z,99514.88
2022-10-01T20:18:35.450Z,99510.94
2022-10-01T20:21:39.366Z,99513.53
2022-10-01T20:24:21.002Z,99505.06
2022-10-01T20:27:11.534Z,99502.69
2022-10-01T20:30:08.956Z,99502.69
2022-10-01T20:32:55.656Z,99506.41
2022-10-01T20:35:56.120Z,99501.19
2022-10-01T20:38:30.673Z,99513.63
2022-10-01T20:41:04.074Z,99520.66
2022-10-01T20:43:44.644Z,99532.66
2022-10-01T20:46:19.848Z,99535.09
2022-10-01T20:48:53.624Z,99536.59
2022-10-01T20:51:49.572Z,99541.53
2022-10-01T20:54:27.209Z,99553.66
2022-10-01T20:57:13.037Z,99553.91
2022-10-01T20:59:44.146Z,99562.97
2022-10-01T21:02:34.661Z,99553.81
2022-10-01T21:05:37.259Z,99567.25
2022-10-01T21:08:16.042Z,99568.72
2022-10-01T21:10:54.075Z,99566.31
2022-10-01T21:13:31.244Z,99570.97
2022-10-01T21:16:38.292Z,99576.03
2022-10-01T21:19:37.467Z,99584.06
2022-10-01T21:22:37.686Z,99579.00
2022-10-01T21:25:36.102Z,99589.41
2022-10-01T21:28:35.516Z,99603.78
2022-10-01T21:31:33.912Z,99592.81
2022-10-01T21:34:21.906Z,99585.50
2022-10-01T21:37:05.316Z,99580.44
2022-10-01T21:39:40.003Z,99592.38
2022-10-01T21:42:08.644Z,99585.72
2022-10-01T21:44:51.981Z,99585.97
2022-10-01T21:47:52.188Z,99577.16
2022-10-01T21:50:44.651Z,99587.94
2022-10-01T21:53:28.981Z,99580.91
2022-10-01T21:55:58.066Z,99590.72
2022-10-01T21:58:49.884Z,99589.06
2022-10-01T22:01:41.524Z,99587.41
2022-10-01T22:04:40.541Z,99597.72
2022-10-01T22:07:23.093Z,99600.66
2022-10-01T22:10:00.655Z,99597.06
2022-10-01T22:12:32.709Z,99599.34
2022-10-01T22:15:03.570Z,99580.91
2022-10-01T22:17:34.049Z,99573.97
2022-10-01T22:20:05.242Z,99573.69
2022-10-01T22:22:38.576Z,99582.69
2022-10-01T22:25:08.239Z,99584.16
2022-10-01T22:27:44.259Z,99583.19
2022-10-01T22:30:18.496Z,99587.75
2022-10-01T22:32:55.673Z,99590.53
2022-10-01T22:35:32.379Z,99588.75
2022-10-01T22:38:08.062Z,99611.28
2022-10-01T22:40:42.370Z,99605.06
2022-10-01T22:43:12.401Z,99604.22
2022-10-01T22:46:05.751Z,99608.16
2022-10-01T22:48:45.061Z,99602.63
2022-10-01T22:51:30.585Z,99603.09
2022-10-01T22:54:18.067Z,99608.31
2022-10-01T22:57:00.001Z,99601.97
2022-10-01T22:59:46.827Z,99609.00
2022-10-01T23:02:46.994Z,99597.59
2022-10-01T23:05:22.302Z,99595.47
2022-10-01T23:08:25.329Z,99612.91
2022-10-01T23:11:26.276Z,99611.75
2022-10-01T23:14:06.505Z,99616.91
2022-10-01T23:17:06.064Z,99614.09
2022-10-01T23:19:52.807Z,99622.88
2022-10-01T23:22:29.521Z,99618.53
2022-10-01T23:25:23.864Z,99628.94
2022-10-01T23:28:10.395Z,99613.91
2022-10-01T23:30:54.232Z,99618.78
2022-10-01T23:33:47.312Z,99614.38
2022-10-01T23:36:27.864Z,99613.78
2022-10-01T23:39:36.310Z,99612.16
2022-10-01T23:42:22.886Z,99615.66
2022-10-01T23:45:20.200Z,99620.19
2022-10-01T23:48:01.773Z,99621.03
2022-10-01T23:50:49.744Z,99627.06
2022-10-01T23:53:23.823Z,99621.84
2022-10-01T23:56:21.564Z,99625.59
2022-10-01T23:59:09.079Z,99618.78
